sensor_id;sensor_type;location;lat;lon;timestamp;P1;durP1;ratioP1;P2;durP2;ratioP2
1306;SDS011;646;48.696;9.114;2022-10-20T00:01:53;12.07;;;9.90;;
1306;SDS011;646;48.696;9.114;2022-10-20T00:04:19;12.30;;;10.73;;
1306;SDS011;646;48.696;9.114;2022-10-20T00:06:44;13.30;;;10.53;;
1306;SDS011;646;48.696;9.114;2022-10-20T00:09:10;14.20;;;12.10;;
1306;SDS011;646;48.696;9.114;2022-10-20T00:11:35;16.60;;;12.33;;
1306;SDS011;646;48.696;9.114;2022-10-20T00:14:01;17.03;;;13.80;;
1306;SDS011;646;48.696;9.114;2022-10-20T00:16:28;20.35;;;13.65;;
1306;SDS011;646;48.696;9.114;2022-10-20T00:18:56;14.57;;;12.60;;
1306;SDS011;646;48.696;9.114;2022-10-20T00:21:24;17.15;;;12.75;;
1306;SDS011;646;48.696;9.114;2022-10-20T00:23:51;17.02;;;13.32;;
1306;SDS011;646;48.696;9.114;2022-10-20T00:26:18;18.42;;;14.68;;
1306;SDS011;646;48.696;9.114;2022-10-20T00:28:45;12.50;;;10.52;;
1306;SDS011;646;48.696;9.114;2022-10-20T00:31:12;9.55;;;8.57;;
1306;SDS011;646;48.696;9.114;2022-10-20T00:33:39;10.18;;;8.63;;
1306;SDS011;646;48.696;9.114;2022-10-20T00:36:05;11.50;;;8.10;;
1306;SDS011;646;48.696;9.114;2022-10-20T00:38:32;9.63;;;8.05;;
1306;SDS011;646;48.696;9.114;2022-10-20T00:41:01;10.65;;;8.60;;
1306;SDS011;646;48.696;9.114;2022-10-20T00:46:14;10.73;;;7.93;;
1306;SDS011;646;48.696;9.114;2022-10-20T00:48:42;13.95;;;10.57;;
1306;SDS011;646;48.696;9.114;2022-10-20T00:51:12;14.05;;;11.48;;
1306;SDS011;646;48.696;9.114;2022-10-20T00:53:40;11.98;;;10.50;;
1306;SDS011;646;48.696;9.114;2022-10-20T00:56:07;11.85;;;10.07;;
1306;SDS011;646;48.696;9.114;2022-10-20T00:58:33;11.77;;;10.57;;
1306;SDS011;646;48.696;9.114;2022-10-20T01:00:59;14.43;;;11.02;;
1306;SDS011;646;48.696;9.114;2022-10-20T01:06:15;10.63;;;9.25;;
1306;SDS011;646;48.696;9.114;2022-10-20T01:08:43;14.93;;;11.88;;
1306;SDS011;646;48.696;9.114;2022-10-20T01:25:21;9.88;;;7.55;;
1306;SDS011;646;48.696;9.114;2022-10-20T01:28:06;9.38;;;7.43;;
1306;SDS011;646;48.696;9.114;2022-10-20T01:31:02;12.68;;;8.45;;
1306;SDS011;646;48.696;9.114;2022-10-20T01:36:17;11.77;;;9.02;;
1306;SDS011;646;48.696;9.114;2022-10-20T01:38:58;15.35;;;9.63;;
1306;SDS011;646;48.696;9.114;2022-10-20T01:41:37;13.55;;;10.05;;
1306;SDS011;646;48.696;9.114;2022-10-20T01:44:07;12.90;;;9.75;;
1306;SDS011;646;48.696;9.114;2022-10-20T01:46:36;9.40;;;8.10;;
1306;SDS011;646;48.696;9.114;2022-10-20T01:49:04;11.00;;;9.18;;
1306;SDS011;646;48.696;9.114;2022-10-20T01:51:31;13.35;;;9.45;;
1306;SDS011;646;48.696;9.114;2022-10-20T01:53:57;9.23;;;8.07;;
1306;SDS011;646;48.696;9.114;2022-10-20T01:56:48;12.43;;;9.43;;
1306;SDS011;646;48.696;9.114;2022-10-20T02:02:03;11.43;;;8.80;;
1306;SDS011;646;48.696;9.114;2022-10-20T02:04:38;11.25;;;9.90;;
1306;SDS011;646;48.696;9.114;2022-10-20T02:07:38;12.20;;;9.95;;
1306;SDS011;646;48.696;9.114;2022-10-20T02:10:11;10.85;;;9.40;;
1306;SDS011;646;48.696;9.114;2022-10-20T02:12:42;12.90;;;9.60;;
1306;SDS011;646;48.696;9.114;2022-10-20T02:15:11;10.43;;;9.00;;
1306;SDS011;646;48.696;9.114;2022-10-20T02:17:40;10.07;;;8.90;;
1306;SDS011;646;48.696;9.114;2022-10-20T02:20:09;11.30;;;9.25;;
1306;SDS011;646;48.696;9.114;2022-10-20T02:22:35;12.00;;;10.35;;
1306;SDS011;646;48.696;9.114;2022-10-20T02:25:02;12.57;;;10.20;;
1306;SDS011;646;48.696;9.114;2022-10-20T02:27:33;15.52;;;11.80;;
1306;SDS011;646;48.696;9.114;2022-10-20T02:30:03;16.20;;;11.45;;
1306;SDS011;646;48.696;9.114;2022-10-20T02:32:34;11.82;;;10.50;;
1306;SDS011;646;48.696;9.114;2022-10-20T02:35:20;15.80;;;11.50;;
1306;SDS011;646;48.696;9.114;2022-10-20T02:37:50;13.25;;;10.85;;
1306;SDS011;646;48.696;9.114;2022-10-20T02:40:16;15.93;;;11.63;;
1306;SDS011;646;48.696;9.114;2022-10-20T02:42:41;13.83;;;10.37;;
1306;SDS011;646;48.696;9.114;2022-10-20T02:45:08;13.32;;;10.90;;
1306;SDS011;646;48.696;9.114;2022-10-20T02:47:34;13.35;;;10.80;;
1306;SDS011;646;48.696;9.114;2022-10-20T02:49:59;11.83;;;9.83;;
1306;SDS011;646;48.696;9.114;2022-10-20T02:52:26;11.27;;;9.25;;
1306;SDS011;646;48.696;9.114;2022-10-20T02:54:52;12.60;;;9.30;;
1306;SDS011;646;48.696;9.114;2022-10-20T02:57:17;12.47;;;9.90;;
1306;SDS011;646;48.696;9.114;2022-10-20T02:59:43;15.33;;;11.10;;
1306;SDS011;646;48.696;9.114;2022-10-20T03:02:08;14.03;;;11.30;;
1306;SDS011;646;48.696;9.114;2022-10-20T03:04:34;14.23;;;11.20;;
1306;SDS011;646;48.696;9.114;2022-10-20T03:06:59;18.33;;;11.80;;
1306;SDS011;646;48.696;9.114;2022-10-20T03:09:25;14.60;;;11.43;;
1306;SDS011;646;48.696;9.114;2022-10-20T03:11:50;14.83;;;11.20;;
1306;SDS011;646;48.696;9.114;2022-10-20T03:14:16;15.20;;;12.03;;
1306;SDS011;646;48.696;9.114;2022-10-20T03:16:41;13.00;;;11.23;;
1306;SDS011;646;48.696;9.114;2022-10-20T03:19:07;13.20;;;10.80;;
1306;SDS011;646;48.696;9.114;2022-10-20T03:21:32;17.93;;;12.23;;
1306;SDS011;646;48.696;9.114;2022-10-20T03:23:58;17.63;;;11.50;;
1306;SDS011;646;48.696;9.114;2022-10-20T03:26:23;16.77;;;11.20;;
1306;SDS011;646;48.696;9.114;2022-10-20T03:28:49;17.40;;;10.87;;
1306;SDS011;646;48.696;9.114;2022-10-20T03:31:15;15.40;;;11.63;;
1306;SDS011;646;48.696;9.114;2022-10-20T03:33:40;20.10;;;11.60;;
1306;SDS011;646;48.696;9.114;2022-10-20T03:36:06;16.53;;;12.43;;
1306;SDS011;646;48.696;9.114;2022-10-20T03:38:32;15.98;;;11.73;;
1306;SDS011;646;48.696;9.114;2022-10-20T03:40:57;16.77;;;11.90;;
1306;SDS011;646;48.696;9.114;2022-10-20T03:43:23;18.27;;;13.00;;
1306;SDS011;646;48.696;9.114;2022-10-20T03:45:49;13.87;;;11.63;;
1306;SDS011;646;48.696;9.114;2022-10-20T03:48:14;16.20;;;13.20;;
1306;SDS011;646;48.696;9.114;2022-10-20T03:50:40;14.80;;;11.30;;
1306;SDS011;646;48.696;9.114;2022-10-20T03:53:07;16.65;;;11.88;;
1306;SDS011;646;48.696;9.114;2022-10-20T03:55:36;19.60;;;12.43;;
1306;SDS011;646;48.696;9.114;2022-10-20T03:58:02;14.70;;;10.33;;
1306;SDS011;646;48.696;9.114;2022-10-20T04:00:27;15.23;;;11.47;;
1306;SDS011;646;48.696;9.114;2022-10-20T04:02:53;15.50;;;12.00;;
1306;SDS011;646;48.696;9.114;2022-10-20T04:05:19;20.70;;;11.73;;
1306;SDS011;646;48.696;9.114;2022-10-20T04:07:45;14.80;;;11.23;;
1306;SDS011;646;48.696;9.114;2022-10-20T04:10:11;16.93;;;10.37;;
1306;SDS011;646;48.696;9.114;2022-10-20T04:12:37;14.35;;;11.00;;
1306;SDS011;646;48.696;9.114;2022-10-20T04:15:03;15.00;;;9.90;;
1306;SDS011;646;48.696;9.114;2022-10-20T04:17:30;13.27;;;9.82;;
1306;SDS011;646;48.696;9.114;2022-10-20T04:19:55;11.70;;;9.80;;
1306;SDS011;646;48.696;9.114;2022-10-20T04:22:21;14.03;;;10.10;;
1306;SDS011;646;48.696;9.114;2022-10-20T04:24:46;14.93;;;10.50;;
1306;SDS011;646;48.696;9.114;2022-10-20T04:27:12;14.10;;;9.70;;
1306;SDS011;646;48.696;9.114;2022-10-20T04:29:37;12.83;;;9.37;;
1306;SDS011;646;48.696;9.114;2022-10-20T04:32:03;12.80;;;9.90;;
1306;SDS011;646;48.696;9.114;2022-10-20T04:34:29;11.73;;;10.10;;
1306;SDS011;646;48.696;9.114;2022-10-20T04:36:54;15.13;;;10.37;;
1306;SDS011;646;48.696;9.114;2022-10-20T04:39:20;13.43;;;9.97;;
1306;SDS011;646;48.696;9.114;2022-10-20T04:41:45;13.77;;;10.93;;
1306;SDS011;646;48.696;9.114;2022-10-20T04:44:11;18.80;;;12.70;;
1306;SDS011;646;48.696;9.114;2022-10-20T04:46:37;18.93;;;13.27;;
1306;SDS011;646;48.696;9.114;2022-10-20T04:49:03;21.57;;;14.00;;
1306;SDS011;646;48.696;9.114;2022-10-20T04:51:28;13.20;;;10.73;;
1306;SDS011;646;48.696;9.114;2022-10-20T04:53:54;12.43;;;10.20;;
1306;SDS011;646;48.696;9.114;2022-10-20T04:56:20;11.60;;;9.60;;
1306;SDS011;646;48.696;9.114;2022-10-20T04:58:46;16.70;;;11.40;;
1306;SDS011;646;48.696;9.114;2022-10-20T05:01:13;14.55;;;11.55;;
1306;SDS011;646;48.696;9.114;2022-10-20T05:03:38;17.67;;;12.40;;
1306;SDS011;646;48.696;9.114;2022-10-20T05:06:14;18.03;;;12.47;;
1306;SDS011;646;48.696;9.114;2022-10-20T05:08:40;18.08;;;13.38;;
1306;SDS011;646;48.696;9.114;2022-10-20T05:11:07;18.95;;;12.20;;
1306;SDS011;646;48.696;9.114;2022-10-20T05:13:33;18.70;;;13.98;;
1306;SDS011;646;48.696;9.114;2022-10-20T05:15:59;18.80;;;13.40;;
1306;SDS011;646;48.696;9.114;2022-10-20T05:18:24;20.17;;;13.67;;
1306;SDS011;646;48.696;9.114;2022-10-20T05:20:50;22.00;;;13.70;;
1306;SDS011;646;48.696;9.114;2022-10-20T05:23:15;15.77;;;10.90;;
1306;SDS011;646;48.696;9.114;2022-10-20T05:25:41;15.40;;;11.70;;
1306;SDS011;646;48.696;9.114;2022-10-20T05:28:06;18.53;;;12.73;;
1306;SDS011;646;48.696;9.114;2022-10-20T05:30:35;19.97;;;13.50;;
1306;SDS011;646;48.696;9.114;2022-10-20T05:33:01;20.23;;;12.75;;
1306;SDS011;646;48.696;9.114;2022-10-20T05:35:27;16.30;;;11.70;;
1306;SDS011;646;48.696;9.114;2022-10-20T05:37:53;13.13;;;10.33;;
1306;SDS011;646;48.696;9.114;2022-10-20T05:40:20;11.52;;;8.00;;
1306;SDS011;646;48.696;9.114;2022-10-20T05:42:46;9.73;;;7.50;;
1306;SDS011;646;48.696;9.114;2022-10-20T05:45:11;11.47;;;8.37;;
1306;SDS011;646;48.696;9.114;2022-10-20T05:47:37;13.23;;;9.93;;
1306;SDS011;646;48.696;9.114;2022-10-20T05:50:02;13.37;;;10.43;;
1306;SDS011;646;48.696;9.114;2022-10-20T05:52:28;15.70;;;11.83;;
1306;SDS011;646;48.696;9.114;2022-10-20T05:54:54;19.97;;;13.90;;
1306;SDS011;646;48.696;9.114;2022-10-20T05:57:19;18.77;;;13.13;;
1306;SDS011;646;48.696;9.114;2022-10-20T05:59:45;16.20;;;12.43;;
1306;SDS011;646;48.696;9.114;2022-10-20T06:02:10;18.10;;;13.40;;
1306;SDS011;646;48.696;9.114;2022-10-20T06:04:36;19.87;;;14.63;;
1306;SDS011;646;48.696;9.114;2022-10-20T06:07:02;22.23;;;14.57;;
1306;SDS011;646;48.696;9.114;2022-10-20T06:09:30;22.70;;;16.17;;
1306;SDS011;646;48.696;9.114;2022-10-20T06:11:56;17.77;;;13.48;;
1306;SDS011;646;48.696;9.114;2022-10-20T06:14:23;23.85;;;15.52;;
1306;SDS011;646;48.696;9.114;2022-10-20T06:16:52;19.10;;;11.93;;
1306;SDS011;646;48.696;9.114;2022-10-20T06:19:19;12.57;;;10.50;;
1306;SDS011;646;48.696;9.114;2022-10-20T06:21:46;13.02;;;10.23;;
1306;SDS011;646;48.696;9.114;2022-10-20T06:24:12;17.37;;;13.10;;
1306;SDS011;646;48.696;9.114;2022-10-20T06:26:38;16.40;;;13.37;;
1306;SDS011;646;48.696;9.114;2022-10-20T06:29:05;18.38;;;14.13;;
1306;SDS011;646;48.696;9.114;2022-10-20T06:31:33;14.73;;;11.95;;
1306;SDS011;646;48.696;9.114;2022-10-20T06:34:03;10.35;;;9.13;;
1306;SDS011;646;48.696;9.114;2022-10-20T06:36:34;12.25;;;9.95;;
1306;SDS011;646;48.696;9.114;2022-10-20T06:39:01;11.55;;;8.65;;
1306;SDS011;646;48.696;9.114;2022-10-20T06:41:28;10.95;;;9.55;;
1306;SDS011;646;48.696;9.114;2022-10-20T06:43:54;9.25;;;7.97;;
1306;SDS011;646;48.696;9.114;2022-10-20T06:46:24;11.63;;;8.70;;
1306;SDS011;646;48.696;9.114;2022-10-20T06:49:01;10.30;;;8.93;;
1306;SDS011;646;48.696;9.114;2022-10-20T06:51:28;11.52;;;9.32;;
1306;SDS011;646;48.696;9.114;2022-10-20T06:53:54;11.77;;;9.10;;
1306;SDS011;646;48.696;9.114;2022-10-20T06:56:23;14.47;;;10.63;;
1306;SDS011;646;48.696;9.114;2022-10-20T06:58:52;10.80;;;9.80;;
1306;SDS011;646;48.696;9.114;2022-10-20T07:01:22;13.57;;;10.52;;
1306;SDS011;646;48.696;9.114;2022-10-20T07:03:53;11.43;;;9.38;;
1306;SDS011;646;48.696;9.114;2022-10-20T07:06:31;11.55;;;9.40;;
1306;SDS011;646;48.696;9.114;2022-10-20T07:09:02;11.77;;;9.50;;
1306;SDS011;646;48.696;9.114;2022-10-20T07:11:31;12.07;;;9.85;;
1306;SDS011;646;48.696;9.114;2022-10-20T07:13:57;11.85;;;9.30;;
1306;SDS011;646;48.696;9.114;2022-10-20T07:16:24;12.57;;;9.80;;
1306;SDS011;646;48.696;9.114;2022-10-20T07:18:51;14.77;;;11.35;;
1306;SDS011;646;48.696;9.114;2022-10-20T07:21:18;12.77;;;10.97;;
1306;SDS011;646;48.696;9.114;2022-10-20T07:23:45;14.60;;;12.20;;
1306;SDS011;646;48.696;9.114;2022-10-20T07:26:13;18.30;;;13.10;;
1306;SDS011;646;48.696;9.114;2022-10-20T07:28:41;14.40;;;11.20;;
1306;SDS011;646;48.696;9.114;2022-10-20T07:31:09;13.27;;;10.37;;
1306;SDS011;646;48.696;9.114;2022-10-20T07:33:40;10.53;;;8.90;;
1306;SDS011;646;48.696;9.114;2022-10-20T07:36:21;10.13;;;8.93;;
1306;SDS011;646;48.696;9.114;2022-10-20T07:38:52;12.40;;;8.30;;
1306;SDS011;646;48.696;9.114;2022-10-20T07:41:19;12.07;;;8.97;;
1306;SDS011;646;48.696;9.114;2022-10-20T07:43:45;9.80;;;8.83;;
1306;SDS011;646;48.696;9.114;2022-10-20T07:46:11;9.30;;;8.40;;
1306;SDS011;646;48.696;9.114;2022-10-20T07:48:37;13.03;;;10.20;;
1306;SDS011;646;48.696;9.114;2022-10-20T07:54:05;11.70;;;9.67;;
1306;SDS011;646;48.696;9.114;2022-10-20T07:56:33;14.23;;;12.73;;
1306;SDS011;646;48.696;9.114;2022-10-20T07:59:03;10.30;;;9.20;;
1306;SDS011;646;48.696;9.114;2022-10-20T08:01:29;12.57;;;11.27;;
1306;SDS011;646;48.696;9.114;2022-10-20T08:03:55;9.90;;;8.80;;
1306;SDS011;646;48.696;9.114;2022-10-20T08:06:21;10.30;;;8.90;;
1306;SDS011;646;48.696;9.114;2022-10-20T08:08:47;13.43;;;9.57;;
1306;SDS011;646;48.696;9.114;2022-10-20T08:11:13;11.57;;;10.37;;
1306;SDS011;646;48.696;9.114;2022-10-20T08:13:38;12.13;;;11.00;;
1306;SDS011;646;48.696;9.114;2022-10-20T08:16:05;9.13;;;8.00;;
1306;SDS011;646;48.696;9.114;2022-10-20T08:18:31;9.93;;;8.40;;
1306;SDS011;646;48.696;9.114;2022-10-20T08:21:13;10.50;;;9.40;;
1306;SDS011;646;48.696;9.114;2022-10-20T08:23:41;10.83;;;9.37;;
1306;SDS011;646;48.696;9.114;2022-10-20T08:26:09;11.83;;;10.63;;
1306;SDS011;646;48.696;9.114;2022-10-20T08:28:36;9.93;;;8.93;;
1306;SDS011;646;48.696;9.114;2022-10-20T08:31:02;10.27;;;9.03;;
1306;SDS011;646;48.696;9.114;2022-10-20T08:33:29;9.63;;;8.73;;
1306;SDS011;646;48.696;9.114;2022-10-20T08:35:59;9.63;;;8.67;;
1306;SDS011;646;48.696;9.114;2022-10-20T08:38:26;8.40;;;7.60;;
1306;SDS011;646;48.696;9.114;2022-10-20T08:40:52;9.20;;;8.30;;
1306;SDS011;646;48.696;9.114;2022-10-20T08:43:17;9.10;;;8.30;;
1306;SDS011;646;48.696;9.114;2022-10-20T08:45:44;7.90;;;7.20;;
1306;SDS011;646;48.696;9.114;2022-10-20T08:48:14;7.17;;;6.50;;
1306;SDS011;646;48.696;9.114;2022-10-20T08:50:45;7.23;;;6.63;;
1306;SDS011;646;48.696;9.114;2022-10-20T08:53:15;6.40;;;5.87;;
1306;SDS011;646;48.696;9.114;2022-10-20T08:55:43;6.77;;;6.17;;
1306;SDS011;646;48.696;9.114;2022-10-20T08:58:11;5.73;;;5.23;;
1306;SDS011;646;48.696;9.114;2022-10-20T09:00:39;7.53;;;6.60;;
1306;SDS011;646;48.696;9.114;2022-10-20T09:03:10;6.40;;;5.90;;
1306;SDS011;646;48.696;9.114;2022-10-20T09:05:43;7.13;;;6.47;;
1306;SDS011;646;48.696;9.114;2022-10-20T09:08:13;6.63;;;6.13;;
1306;SDS011;646;48.696;9.114;2022-10-20T09:10:48;7.20;;;6.50;;
1306;SDS011;646;48.696;9.114;2022-10-20T09:13:19;6.50;;;5.87;;
1306;SDS011;646;48.696;9.114;2022-10-20T09:15:49;7.00;;;6.30;;
1306;SDS011;646;48.696;9.114;2022-10-20T09:18:18;8.73;;;6.37;;
1306;SDS011;646;48.696;9.114;2022-10-20T09:20:50;6.30;;;5.70;;
1306;SDS011;646;48.696;9.114;2022-10-20T09:23:17;6.30;;;5.80;;
1306;SDS011;646;48.696;9.114;2022-10-20T09:25:46;6.07;;;5.57;;
1306;SDS011;646;48.696;9.114;2022-10-20T09:28:19;7.40;;;6.80;;
1306;SDS011;646;48.696;9.114;2022-10-20T09:30:46;5.07;;;4.47;;
1306;SDS011;646;48.696;9.114;2022-10-20T09:33:23;4.63;;;4.33;;
1306;SDS011;646;48.696;9.114;2022-10-20T09:35:55;6.30;;;5.80;;
1306;SDS011;646;48.696;9.114;2022-10-20T09:38:28;6.90;;;6.30;;
1306;SDS011;646;48.696;9.114;2022-10-20T09:40:57;5.50;;;5.00;;
1306;SDS011;646;48.696;9.114;2022-10-20T09:43:38;5.43;;;4.93;;
1306;SDS011;646;48.696;9.114;2022-10-20T09:46:11;6.60;;;5.57;;
1306;SDS011;646;48.696;9.114;2022-10-20T09:48:37;6.00;;;5.40;;
1306;SDS011;646;48.696;9.114;2022-10-20T09:51:06;5.60;;;5.10;;
1306;SDS011;646;48.696;9.114;2022-10-20T09:53:59;6.93;;;6.33;;
1306;SDS011;646;48.696;9.114;2022-10-20T09:56:29;5.80;;;5.30;;
1306;SDS011;646;48.696;9.114;2022-10-20T09:58:59;5.53;;;5.03;;
1306;SDS011;646;48.696;9.114;2022-10-20T10:01:29;5.63;;;5.13;;
1306;SDS011;646;48.696;9.114;2022-10-20T10:03:55;5.77;;;5.17;;
1306;SDS011;646;48.696;9.114;2022-10-20T10:09:05;6.20;;;5.60;;
1306;SDS011;646;48.696;9.114;2022-10-20T10:12:05;5.40;;;4.90;;
1306;SDS011;646;48.696;9.114;2022-10-20T10:14:57;6.83;;;6.23;;
1306;SDS011;646;48.696;9.114;2022-10-20T10:20:00;5.70;;;5.20;;
1306;SDS011;646;48.696;9.114;2022-10-20T10:22:29;5.10;;;4.70;;
1306;SDS011;646;48.696;9.114;2022-10-20T10:24:55;6.37;;;5.30;;
1306;SDS011;646;48.696;9.114;2022-10-20T10:27:26;6.00;;;5.50;;
1306;SDS011;646;48.696;9.114;2022-10-20T10:29:55;5.20;;;4.70;;
1306;SDS011;646;48.696;9.114;2022-10-20T10:32:44;5.40;;;5.00;;
1306;SDS011;646;48.696;9.114;2022-10-20T10:35:16;5.17;;;4.70;;
1306;SDS011;646;48.696;9.114;2022-10-20T10:37:44;4.83;;;4.47;;
1306;SDS011;646;48.696;9.114;2022-10-20T10:40:13;4.60;;;4.30;;
1306;SDS011;646;48.696;9.114;2022-10-20T10:46:06;5.20;;;4.80;;
1306;SDS011;646;48.696;9.114;2022-10-20T10:54:01;5.47;;;4.97;;
1306;SDS011;646;48.696;9.114;2022-10-20T10:56:37;4.67;;;4.27;;
1306;SDS011;646;48.696;9.114;2022-10-20T11:05:18;5.27;;;4.87;;
1306;SDS011;646;48.696;9.114;2022-10-20T11:13:24;4.63;;;4.33;;
1306;SDS011;646;48.696;9.114;2022-10-20T11:24:36;5.60;;;5.10;;
1306;SDS011;646;48.696;9.114;2022-10-20T11:27:08;5.80;;;5.20;;
1306;SDS011;646;48.696;9.114;2022-10-20T11:32:17;5.27;;;4.87;;
1306;SDS011;646;48.696;9.114;2022-10-20T11:48:19;5.23;;;4.83;;
1306;SDS011;646;48.696;9.114;2022-10-20T11:51:06;5.57;;;5.07;;
1306;SDS011;646;48.696;9.114;2022-10-20T11:57:08;5.20;;;4.80;;
1306;SDS011;646;48.696;9.114;2022-10-20T12:00:01;4.40;;;4.10;;
1306;SDS011;646;48.696;9.114;2022-10-20T12:02:48;4.63;;;4.33;;
1306;SDS011;646;48.696;9.114;2022-10-20T12:05:37;3.93;;;3.70;;
1306;SDS011;646;48.696;9.114;2022-10-20T12:11:54;4.87;;;4.53;;
1306;SDS011;646;48.696;9.114;2022-10-20T12:19:29;4.57;;;4.27;;
1306;SDS011;646;48.696;9.114;2022-10-20T12:22:03;6.23;;;4.60;;
1306;SDS011;646;48.696;9.114;2022-10-20T12:24:39;4.80;;;4.50;;
1306;SDS011;646;48.696;9.114;2022-10-20T12:27:28;4.97;;;4.50;;
1306;SDS011;646;48.696;9.114;2022-10-20T12:38:21;5.57;;;4.87;;
1306;SDS011;646;48.696;9.114;2022-10-20T12:40:43;5.00;;;4.50;;
1306;SDS011;646;48.696;9.114;2022-10-20T12:43:32;4.90;;;4.50;;
1306;SDS011;646;48.696;9.114;2022-10-20T12:46:10;5.50;;;4.40;;
1306;SDS011;646;48.696;9.114;2022-10-20T12:48:43;5.33;;;4.90;;
1306;SDS011;646;48.696;9.114;2022-10-20T12:51:20;5.00;;;4.60;;
1306;SDS011;646;48.696;9.114;2022-10-20T12:53:52;4.90;;;4.50;;
1306;SDS011;646;48.696;9.114;2022-10-20T12:56:31;4.80;;;4.50;;
1306;SDS011;646;48.696;9.114;2022-10-20T12:59:08;5.07;;;4.60;;
1306;SDS011;646;48.696;9.114;2022-10-20T13:15:27;8.40;;;7.70;;
1306;SDS011;646;48.696;9.114;2022-10-20T13:18:01;7.30;;;6.70;;
1306;SDS011;646;48.696;9.114;2022-10-20T13:20:55;8.17;;;6.10;;
1306;SDS011;646;48.696;9.114;2022-10-20T13:23:41;7.13;;;6.53;;
1306;SDS011;646;48.696;9.114;2022-10-20T13:26:24;7.57;;;6.77;;
1306;SDS011;646;48.696;9.114;2022-10-20T13:28:54;7.83;;;7.13;;
1306;SDS011;646;48.696;9.114;2022-10-20T13:34:24;9.90;;;7.03;;
1306;SDS011;646;48.696;9.114;2022-10-20T13:37:00;10.43;;;6.80;;
1306;SDS011;646;48.696;9.114;2022-10-20T13:40:01;8.03;;;7.30;;
1306;SDS011;646;48.696;9.114;2022-10-20T13:51:22;9.60;;;6.30;;
1306;SDS011;646;48.696;9.114;2022-10-20T14:00:37;6.63;;;6.03;;
1306;SDS011;646;48.696;9.114;2022-10-20T14:03:13;6.40;;;5.83;;
1306;SDS011;646;48.696;9.114;2022-10-20T14:05:40;6.37;;;5.87;;
1306;SDS011;646;48.696;9.114;2022-10-20T14:08:07;5.63;;;5.13;;
1306;SDS011;646;48.696;9.114;2022-10-20T14:13:26;7.13;;;6.43;;
1306;SDS011;646;48.696;9.114;2022-10-20T14:15:58;6.70;;;6.10;;
1306;SDS011;646;48.696;9.114;2022-10-20T14:18:25;6.17;;;5.60;;
1306;SDS011;646;48.696;9.114;2022-10-20T14:21:03;6.00;;;5.40;;
1306;SDS011;646;48.696;9.114;2022-10-20T14:23:38;7.30;;;6.70;;
1306;SDS011;646;48.696;9.114;2022-10-20T14:26:06;8.43;;;6.73;;
1306;SDS011;646;48.696;9.114;2022-10-20T14:28:39;9.63;;;8.83;;
1306;SDS011;646;48.696;9.114;2022-10-20T14:31:05;10.70;;;9.90;;
1306;SDS011;646;48.696;9.114;2022-10-20T14:33:34;15.30;;;13.83;;
1306;SDS011;646;48.696;9.114;2022-10-20T14:36:05;15.40;;;14.30;;
1306;SDS011;646;48.696;9.114;2022-10-20T14:38:32;12.33;;;11.27;;
1306;SDS011;646;48.696;9.114;2022-10-20T14:41:02;10.20;;;9.40;;
1306;SDS011;646;48.696;9.114;2022-10-20T14:46:08;8.17;;;7.47;;
1306;SDS011;646;48.696;9.114;2022-10-20T14:48:36;8.43;;;7.73;;
1306;SDS011;646;48.696;9.114;2022-10-20T14:54:14;6.77;;;6.27;;
1306;SDS011;646;48.696;9.114;2022-10-20T14:56:50;7.33;;;6.63;;
1306;SDS011;646;48.696;9.114;2022-10-20T14:59:27;8.00;;;7.03;;
1306;SDS011;646;48.696;9.114;2022-10-20T15:04:33;27.77;;;24.77;;
1306;SDS011;646;48.696;9.114;2022-10-20T15:07:03;86.97;;;55.77;;
1306;SDS011;646;48.696;9.114;2022-10-20T15:09:41;46.10;;;33.97;;
1306;SDS011;646;48.696;9.114;2022-10-20T15:12:31;40.40;;;28.43;;
1306;SDS011;646;48.696;9.114;2022-10-20T15:15:16;39.50;;;24.70;;
1306;SDS011;646;48.696;9.114;2022-10-20T15:17:48;27.47;;;20.27;;
1306;SDS011;646;48.696;9.114;2022-10-20T15:20:40;29.87;;;20.30;;
1306;SDS011;646;48.696;9.114;2022-10-20T15:23:11;21.03;;;15.80;;
1306;SDS011;646;48.696;9.114;2022-10-20T15:25:52;19.20;;;13.90;;
1306;SDS011;646;48.696;9.114;2022-10-20T15:28:28;17.67;;;12.27;;
1306;SDS011;646;48.696;9.114;2022-10-20T15:31:01;17.70;;;13.27;;
1306;SDS011;646;48.696;9.114;2022-10-20T15:33:29;11.67;;;10.47;;
1306;SDS011;646;48.696;9.114;2022-10-20T15:35:54;11.00;;;9.80;;
1306;SDS011;646;48.696;9.114;2022-10-20T15:38:20;11.33;;;8.87;;
1306;SDS011;646;48.696;9.114;2022-10-20T15:40:46;8.77;;;7.97;;
1306;SDS011;646;48.696;9.114;2022-10-20T15:43:13;8.50;;;7.80;;
1306;SDS011;646;48.696;9.114;2022-10-20T15:45:45;8.77;;;7.93;;
1306;SDS011;646;48.696;9.114;2022-10-20T15:48:15;7.90;;;7.10;;
1306;SDS011;646;48.696;9.114;2022-10-20T15:50:41;8.90;;;7.60;;
1306;SDS011;646;48.696;9.114;2022-10-20T15:53:06;8.90;;;8.20;;
1306;SDS011;646;48.696;9.114;2022-10-20T15:55:35;8.90;;;8.20;;
1306;SDS011;646;48.696;9.114;2022-10-20T15:58:03;8.77;;;7.97;;
1306;SDS011;646;48.696;9.114;2022-10-20T16:00:29;12.30;;;8.53;;
1306;SDS011;646;48.696;9.114;2022-10-20T16:02:54;8.37;;;7.57;;
1306;SDS011;646;48.696;9.114;2022-10-20T16:05:20;8.47;;;7.33;;
1306;SDS011;646;48.696;9.114;2022-10-20T16:07:48;7.90;;;7.23;;
1306;SDS011;646;48.696;9.114;2022-10-20T16:10:16;7.23;;;6.50;;
1306;SDS011;646;48.696;9.114;2022-10-20T16:12:42;8.20;;;7.40;;
1306;SDS011;646;48.696;9.114;2022-10-20T16:15:08;8.77;;;7.93;;
1306;SDS011;646;48.696;9.114;2022-10-20T16:17:34;7.30;;;6.57;;
1306;SDS011;646;48.696;9.114;2022-10-20T16:20:00;8.37;;;7.60;;
1306;SDS011;646;48.696;9.114;2022-10-20T16:22:26;8.23;;;7.53;;
1306;SDS011;646;48.696;9.114;2022-10-20T16:24:52;8.73;;;8.03;;
1306;SDS011;646;48.696;9.114;2022-10-20T16:27:19;9.27;;;8.37;;
1306;SDS011;646;48.696;9.114;2022-10-20T16:29:44;8.80;;;8.03;;
1306;SDS011;646;48.696;9.114;2022-10-20T16:32:10;9.47;;;8.63;;
1306;SDS011;646;48.696;9.114;2022-10-20T16:34:35;9.63;;;8.77;;
1306;SDS011;646;48.696;9.114;2022-10-20T16:37:01;10.10;;;9.30;;
1306;SDS011;646;48.696;9.114;2022-10-20T16:39:26;9.40;;;8.57;;
1306;SDS011;646;48.696;9.114;2022-10-20T16:41:52;10.93;;;9.90;;
1306;SDS011;646;48.696;9.114;2022-10-20T16:44:18;9.57;;;8.77;;
1306;SDS011;646;48.696;9.114;2022-10-20T16:46:43;11.40;;;10.30;;
1306;SDS011;646;48.696;9.114;2022-10-20T16:49:09;11.53;;;10.40;;
1306;SDS011;646;48.696;9.114;2022-10-20T16:51:34;10.60;;;9.60;;
1306;SDS011;646;48.696;9.114;2022-10-20T16:54:00;11.90;;;10.90;;
1306;SDS011;646;48.696;9.114;2022-10-20T16:56:26;14.67;;;13.20;;
1306;SDS011;646;48.696;9.114;2022-10-20T16:58:51;14.40;;;12.90;;
1306;SDS011;646;48.696;9.114;2022-10-20T17:01:18;19.00;;;14.40;;
1306;SDS011;646;48.696;9.114;2022-10-20T17:03:46;14.90;;;13.60;;
1306;SDS011;646;48.696;9.114;2022-10-20T17:06:13;12.43;;;11.23;;
1306;SDS011;646;48.696;9.114;2022-10-20T17:08:40;10.17;;;9.37;;
1306;SDS011;646;48.696;9.114;2022-10-20T17:11:09;11.10;;;10.10;;
1306;SDS011;646;48.696;9.114;2022-10-20T17:13:37;11.57;;;10.40;;
1306;SDS011;646;48.696;9.114;2022-10-20T17:16:07;13.87;;;12.57;;
1306;SDS011;646;48.696;9.114;2022-10-20T17:18:35;13.00;;;11.90;;
1306;SDS011;646;48.696;9.114;2022-10-20T17:21:01;15.30;;;12.50;;
1306;SDS011;646;48.696;9.114;2022-10-20T17:23:29;12.13;;;10.80;;
1306;SDS011;646;48.696;9.114;2022-10-20T17:26:00;11.70;;;10.70;;
1306;SDS011;646;48.696;9.114;2022-10-20T17:28:30;10.63;;;9.63;;
1306;SDS011;646;48.696;9.114;2022-10-20T17:30:57;11.73;;;10.63;;
1306;SDS011;646;48.696;9.114;2022-10-20T17:33:24;12.33;;;10.47;;
1306;SDS011;646;48.696;9.114;2022-10-20T17:35:51;12.73;;;11.60;;
1306;SDS011;646;48.696;9.114;2022-10-20T17:38:18;12.60;;;10.90;;
1306;SDS011;646;48.696;9.114;2022-10-20T17:40:43;11.83;;;10.80;;
1306;SDS011;646;48.696;9.114;2022-10-20T17:43:09;11.53;;;10.43;;
1306;SDS011;646;48.696;9.114;2022-10-20T17:45:35;11.03;;;10.03;;
1306;SDS011;646;48.696;9.114;2022-10-20T17:48:00;11.70;;;9.70;;
1306;SDS011;646;48.696;9.114;2022-10-20T17:50:26;11.30;;;9.50;;
1306;SDS011;646;48.696;9.114;2022-10-20T17:52:52;10.00;;;9.00;;